sensor_id;sensor_type;location;lat;lon;timestamp;P1;durP1;ratioP1;P2;durP2;ratioP2
21878;SDS011;27908;42.708;23.278;2022-08-11T00:00:03;12.38;;;5.75;;
21878;SDS011;27908;42.708;23.278;2022-08-11T00:05:07;10.23;;;6.40;;
21878;SDS011;27908;42.708;23.278;2022-08-11T00:07:59;11.33;;;6.50;;
21878;SDS011;27908;42.708;23.278;2022-08-11T00:10:26;10.88;;;6.35;;
21878;SDS011;27908;42.708;23.278;2022-08-11T00:12:56;11.00;;;6.35;;
21878;SDS011;27908;42.708;23.278;2022-08-11T00:15:25;10.27;;;6.13;;
21878;SDS011;27908;42.708;23.278;2022-08-11T00:17:56;13.82;;;6.72;;
21878;SDS011;27908;42.708;23.278;2022-08-11T00:20:27;12.20;;;6.53;;
21878;SDS011;27908;42.708;23.278;2022-08-11T00:22:59;13.70;;;6.28;;
21878;SDS011;27908;42.708;23.278;2022-08-11T00:25:27;11.65;;;6.63;;
21878;SDS011;27908;42.708;23.278;2022-08-11T00:27:53;11.07;;;6.15;;
21878;SDS011;27908;42.708;23.278;2022-08-11T00:30:18;10.53;;;6.07;;
21878;SDS011;27908;42.708;23.278;2022-08-11T00:32:45;12.00;;;6.15;;
21878;SDS011;27908;42.708;23.278;2022-08-11T00:35:19;11.10;;;6.27;;
21878;SDS011;27908;42.708;23.278;2022-08-11T00:37:50;12.63;;;6.75;;
21878;SDS011;27908;42.708;23.278;2022-08-11T00:45:42;13.40;;;6.25;;
21878;SDS011;27908;42.708;23.278;2022-08-11T00:48:28;14.93;;;6.37;;
21878;SDS011;27908;42.708;23.278;2022-08-11T00:59:31;11.07;;;6.05;;
21878;SDS011;27908;42.708;23.278;2022-08-11T01:02:11;13.27;;;6.27;;
21878;SDS011;27908;42.708;23.278;2022-08-11T01:24:51;12.77;;;6.60;;
21878;SDS011;27908;42.708;23.278;2022-08-11T01:50:29;12.25;;;6.65;;
21878;SDS011;27908;42.708;23.278;2022-08-11T01:56:20;12.85;;;6.95;;
21878;SDS011;27908;42.708;23.278;2022-08-11T01:59:17;14.30;;;6.73;;
21878;SDS011;27908;42.708;23.278;2022-08-11T02:05:06;12.82;;;6.95;;
21878;SDS011;27908;42.708;23.278;2022-08-11T02:07:37;12.20;;;7.10;;
21878;SDS011;27908;42.708;23.278;2022-08-11T02:10:38;15.18;;;7.35;;
21878;SDS011;27908;42.708;23.278;2022-08-11T02:28:28;11.23;;;6.67;;
21878;SDS011;27908;42.708;23.278;2022-08-11T02:31:19;13.50;;;8.18;;
21878;SDS011;27908;42.708;23.278;2022-08-11T02:34:15;12.23;;;7.10;;
21878;SDS011;27908;42.708;23.278;2022-08-11T02:36:54;11.52;;;7.13;;
21878;SDS011;27908;42.708;23.278;2022-08-11T02:39:34;10.95;;;6.68;;
21878;SDS011;27908;42.708;23.278;2022-08-11T02:42:15;12.67;;;7.20;;
21878;SDS011;27908;42.708;23.278;2022-08-11T03:02:19;13.77;;;7.38;;
21878;SDS011;27908;42.708;23.278;2022-08-11T03:04:58;14.32;;;7.45;;
21878;SDS011;27908;42.708;23.278;2022-08-11T03:13:40;12.27;;;7.63;;
21878;SDS011;27908;42.708;23.278;2022-08-11T03:16:40;14.30;;;7.85;;
21878;SDS011;27908;42.708;23.278;2022-08-11T03:22:39;16.25;;;8.13;;
21878;SDS011;27908;42.708;23.278;2022-08-11T03:27:51;15.38;;;8.27;;
21878;SDS011;27908;42.708;23.278;2022-08-11T03:30:39;13.85;;;7.95;;
21878;SDS011;27908;42.708;23.278;2022-08-11T03:36:09;15.95;;;8.07;;
21878;SDS011;27908;42.708;23.278;2022-08-11T03:44:28;17.52;;;8.93;;
21878;SDS011;27908;42.708;23.278;2022-08-11T04:01:18;16.60;;;8.50;;
21878;SDS011;27908;42.708;23.278;2022-08-11T04:09:43;15.63;;;8.65;;
21878;SDS011;27908;42.708;23.278;2022-08-11T04:30:16;13.73;;;8.30;;
21878;SDS011;27908;42.708;23.278;2022-08-11T04:35:29;13.73;;;8.57;;
21878;SDS011;27908;42.708;23.278;2022-08-11T04:46:40;16.42;;;9.30;;
21878;SDS011;27908;42.708;23.278;2022-08-11T04:56:16;17.65;;;9.23;;
21878;SDS011;27908;42.708;23.278;2022-08-11T04:59:10;16.67;;;9.45;;
21878;SDS011;27908;42.708;23.278;2022-08-11T05:13:47;17.77;;;7.80;;
21878;SDS011;27908;42.708;23.278;2022-08-11T05:16:40;15.25;;;8.88;;
21878;SDS011;27908;42.708;23.278;2022-08-11T05:19:30;15.33;;;8.67;;
21878;SDS011;27908;42.708;23.278;2022-08-11T05:22:16;13.23;;;8.13;;
21878;SDS011;27908;42.708;23.278;2022-08-11T05:25:11;16.80;;;7.78;;
21878;SDS011;27908;42.708;23.278;2022-08-11T05:28:04;14.43;;;7.60;;
21878;SDS011;27908;42.708;23.278;2022-08-11T05:30:56;12.85;;;7.72;;
21878;SDS011;27908;42.708;23.278;2022-08-11T05:33:46;16.20;;;7.77;;
21878;SDS011;27908;42.708;23.278;2022-08-11T05:36:43;12.20;;;7.10;;
21878;SDS011;27908;42.708;23.278;2022-08-11T05:39:18;13.20;;;7.70;;
21878;SDS011;27908;42.708;23.278;2022-08-11T05:42:06;15.30;;;7.80;;
21878;SDS011;27908;42.708;23.278;2022-08-11T05:44:52;12.95;;;7.38;;
21878;SDS011;27908;42.708;23.278;2022-08-11T05:47:40;13.63;;;7.73;;
21878;SDS011;27908;42.708;23.278;2022-08-11T05:50:25;13.73;;;7.63;;
21878;SDS011;27908;42.708;23.278;2022-08-11T05:53:11;15.10;;;7.90;;
21878;SDS011;27908;42.708;23.278;2022-08-11T05:55:57;15.80;;;8.05;;
21878;SDS011;27908;42.708;23.278;2022-08-11T05:58:45;14.30;;;7.60;;
21878;SDS011;27908;42.708;23.278;2022-08-11T06:01:13;12.73;;;7.47;;
21878;SDS011;27908;42.708;23.278;2022-08-11T06:03:56;11.57;;;6.63;;
21878;SDS011;27908;42.708;23.278;2022-08-11T06:09:33;15.70;;;6.93;;
21878;SDS011;27908;42.708;23.278;2022-08-11T06:12:03;13.57;;;7.13;;
21878;SDS011;27908;42.708;23.278;2022-08-11T06:14:32;12.33;;;6.77;;
21878;SDS011;27908;42.708;23.278;2022-08-11T06:17:00;11.90;;;6.90;;
21878;SDS011;27908;42.708;23.278;2022-08-11T06:19:34;12.18;;;7.00;;
21878;SDS011;27908;42.708;23.278;2022-08-11T06:22:03;13.65;;;6.90;;
21878;SDS011;27908;42.708;23.278;2022-08-11T06:24:29;10.75;;;6.50;;
21878;SDS011;27908;42.708;23.278;2022-08-11T06:26:56;11.60;;;6.87;;
21878;SDS011;27908;42.708;23.278;2022-08-11T06:29:23;12.20;;;6.85;;
21878;SDS011;27908;42.708;23.278;2022-08-11T06:31:57;12.63;;;6.45;;
21878;SDS011;27908;42.708;23.278;2022-08-11T06:34:27;12.50;;;6.75;;
21878;SDS011;27908;42.708;23.278;2022-08-11T06:37:04;15.18;;;6.95;;
21878;SDS011;27908;42.708;23.278;2022-08-11T06:42:33;12.68;;;6.47;;
21878;SDS011;27908;42.708;23.278;2022-08-11T06:45:03;12.50;;;6.60;;
21878;SDS011;27908;42.708;23.278;2022-08-11T06:47:40;11.50;;;6.25;;
21878;SDS011;27908;42.708;23.278;2022-08-11T06:50:09;12.65;;;6.72;;
21878;SDS011;27908;42.708;23.278;2022-08-11T06:52:58;11.40;;;5.47;;
21878;SDS011;27908;42.708;23.278;2022-08-11T06:55:24;10.45;;;5.68;;
21878;SDS011;27908;42.708;23.278;2022-08-11T06:58:13;10.85;;;6.07;;
21878;SDS011;27908;42.708;23.278;2022-08-11T07:01:06;12.13;;;5.80;;
21878;SDS011;27908;42.708;23.278;2022-08-11T07:03:36;9.75;;;5.68;;
21878;SDS011;27908;42.708;23.278;2022-08-11T07:09:02;11.55;;;5.88;;
21878;SDS011;27908;42.708;23.278;2022-08-11T07:15:07;10.48;;;5.85;;
21878;SDS011;27908;42.708;23.278;2022-08-11T07:18:21;9.63;;;5.38;;
21878;SDS011;27908;42.708;23.278;2022-08-11T07:21:10;9.17;;;5.20;;
21878;SDS011;27908;42.708;23.278;2022-08-11T07:23:58;11.60;;;4.90;;
21878;SDS011;27908;42.708;23.278;2022-08-11T07:26:47;10.07;;;4.90;;
21878;SDS011;27908;42.708;23.278;2022-08-11T07:29:34;9.15;;;5.13;;
21878;SDS011;27908;42.708;23.278;2022-08-11T07:32:07;15.95;;;5.30;;
21878;SDS011;27908;42.708;23.278;2022-08-11T07:34:39;9.30;;;4.97;;
21878;SDS011;27908;42.708;23.278;2022-08-11T07:37:14;10.85;;;4.78;;
21878;SDS011;27908;42.708;23.278;2022-08-11T07:39:43;9.88;;;5.22;;
21878;SDS011;27908;42.708;23.278;2022-08-11T07:42:11;10.75;;;5.55;;
21878;SDS011;27908;42.708;23.278;2022-08-11T07:44:40;9.50;;;4.60;;
21878;SDS011;27908;42.708;23.278;2022-08-11T07:47:25;8.40;;;4.70;;
21878;SDS011;27908;42.708;23.278;2022-08-11T07:50:10;12.50;;;4.90;;
21878;SDS011;27908;42.708;23.278;2022-08-11T07:52:56;8.73;;;4.65;;
21878;SDS011;27908;42.708;23.278;2022-08-11T07:55:23;12.32;;;4.78;;
21878;SDS011;27908;42.708;23.278;2022-08-11T07:57:52;8.20;;;4.50;;
21878;SDS011;27908;42.708;23.278;2022-08-11T08:00:56;8.70;;;4.33;;
21878;SDS011;27908;42.708;23.278;2022-08-11T08:03:41;8.38;;;4.47;;
21878;SDS011;27908;42.708;23.278;2022-08-11T08:06:27;9.45;;;4.18;;
21878;SDS011;27908;42.708;23.278;2022-08-11T08:09:12;9.27;;;4.20;;
21878;SDS011;27908;42.708;23.278;2022-08-11T08:12:01;7.65;;;3.72;;
21878;SDS011;27908;42.708;23.278;2022-08-11T08:14:46;9.93;;;4.10;;
21878;SDS011;27908;42.708;23.278;2022-08-11T08:17:30;10.38;;;4.55;;
21878;SDS011;27908;42.708;23.278;2022-08-11T08:20:17;9.82;;;4.22;;
21878;SDS011;27908;42.708;23.278;2022-08-11T08:22:51;9.00;;;4.70;;
21878;SDS011;27908;42.708;23.278;2022-08-11T08:25:42;8.30;;;4.28;;
21878;SDS011;27908;42.708;23.278;2022-08-11T08:28:09;8.70;;;5.07;;
21878;SDS011;27908;42.708;23.278;2022-08-11T08:30:38;10.02;;;5.00;;
21878;SDS011;27908;42.708;23.278;2022-08-11T08:33:23;9.30;;;4.63;;
21878;SDS011;27908;42.708;23.278;2022-08-11T08:35:55;9.88;;;4.72;;
21878;SDS011;27908;42.708;23.278;2022-08-11T08:41:21;10.00;;;4.37;;
21878;SDS011;27908;42.708;23.278;2022-08-11T08:43:50;9.15;;;4.28;;
21878;SDS011;27908;42.708;23.278;2022-08-11T08:46:19;10.60;;;4.68;;
21878;SDS011;27908;42.708;23.278;2022-08-11T08:48:50;10.75;;;4.60;;
21878;SDS011;27908;42.708;23.278;2022-08-11T08:51:17;9.27;;;4.10;;
21878;SDS011;27908;42.708;23.278;2022-08-11T08:54:20;8.33;;;4.60;;
21878;SDS011;27908;42.708;23.278;2022-08-11T08:56:51;8.63;;;4.25;;
21878;SDS011;27908;42.708;23.278;2022-08-11T08:59:21;8.65;;;4.30;;
21878;SDS011;27908;42.708;23.278;2022-08-11T09:01:57;8.77;;;4.53;;
21878;SDS011;27908;42.708;23.278;2022-08-11T09:04:27;10.00;;;4.60;;
21878;SDS011;27908;42.708;23.278;2022-08-11T09:07:05;7.97;;;4.13;;
21878;SDS011;27908;42.708;23.278;2022-08-11T09:09:43;8.73;;;4.20;;
21878;SDS011;27908;42.708;23.278;2022-08-11T09:12:12;9.15;;;4.28;;
21878;SDS011;27908;42.708;23.278;2022-08-11T09:14:39;8.88;;;4.40;;
21878;SDS011;27908;42.708;23.278;2022-08-11T09:17:26;7.65;;;4.25;;
21878;SDS011;27908;42.708;23.278;2022-08-11T09:20:20;9.60;;;4.17;;
21878;SDS011;27908;42.708;23.278;2022-08-11T09:22:48;9.70;;;4.18;;
21878;SDS011;27908;42.708;23.278;2022-08-11T09:25:35;8.05;;;4.20;;
21878;SDS011;27908;42.708;23.278;2022-08-11T09:28:20;8.98;;;4.25;;
21878;SDS011;27908;42.708;23.278;2022-08-11T09:30:47;8.40;;;4.18;;
21878;SDS011;27908;42.708;23.278;2022-08-11T09:33:19;8.53;;;4.40;;
21878;SDS011;27908;42.708;23.278;2022-08-11T09:35:46;8.35;;;3.80;;
21878;SDS011;27908;42.708;23.278;2022-08-11T09:38:14;7.93;;;4.43;;
21878;SDS011;27908;42.708;23.278;2022-08-11T09:41:00;8.60;;;4.13;;
21878;SDS011;27908;42.708;23.278;2022-08-11T09:43:29;7.97;;;4.20;;
21878;SDS011;27908;42.708;23.278;2022-08-11T09:46:14;8.53;;;4.50;;
21878;SDS011;27908;42.708;23.278;2022-08-11T09:48:42;12.13;;;4.22;;
21878;SDS011;27908;42.708;23.278;2022-08-11T09:51:09;7.78;;;4.30;;
21878;SDS011;27908;42.708;23.278;2022-08-11T09:53:38;9.88;;;4.55;;
21878;SDS011;27908;42.708;23.278;2022-08-11T09:56:23;9.65;;;4.60;;
21878;SDS011;27908;42.708;23.278;2022-08-11T09:59:08;8.67;;;4.50;;
21878;SDS011;27908;42.708;23.278;2022-08-11T10:01:38;8.45;;;4.75;;
21878;SDS011;27908;42.708;23.278;2022-08-11T10:06:39;8.98;;;4.15;;
21878;SDS011;27908;42.708;23.278;2022-08-11T10:09:24;8.70;;;4.55;;
21878;SDS011;27908;42.708;23.278;2022-08-11T10:11:52;9.40;;;5.00;;
21878;SDS011;27908;42.708;23.278;2022-08-11T10:14:23;7.78;;;4.25;;
21878;SDS011;27908;42.708;23.278;2022-08-11T10:17:08;8.73;;;4.50;;
21878;SDS011;27908;42.708;23.278;2022-08-11T10:19:35;7.85;;;4.63;;
21878;SDS011;27908;42.708;23.278;2022-08-11T10:22:01;9.38;;;4.30;;
21878;SDS011;27908;42.708;23.278;2022-08-11T10:24:49;10.90;;;4.40;;
21878;SDS011;27908;42.708;23.278;2022-08-11T10:27:35;12.60;;;4.10;;
21878;SDS011;27908;42.708;23.278;2022-08-11T10:30:03;8.95;;;3.80;;
21878;SDS011;27908;42.708;23.278;2022-08-11T10:32:48;8.52;;;3.85;;
21878;SDS011;27908;42.708;23.278;2022-08-11T10:35:33;9.65;;;3.47;;
21878;SDS011;27908;42.708;23.278;2022-08-11T10:38:00;7.70;;;3.50;;
21878;SDS011;27908;42.708;23.278;2022-08-11T10:40:26;7.20;;;3.70;;
21878;SDS011;27908;42.708;23.278;2022-08-11T10:42:53;7.78;;;3.05;;
21878;SDS011;27908;42.708;23.278;2022-08-11T10:45:37;7.22;;;3.28;;
21878;SDS011;27908;42.708;23.278;2022-08-11T10:48:23;8.73;;;3.30;;
21878;SDS011;27908;42.708;23.278;2022-08-11T10:50:50;9.83;;;3.90;;
21878;SDS011;27908;42.708;23.278;2022-08-11T10:53:37;8.20;;;3.42;;
21878;SDS011;27908;42.708;23.278;2022-08-11T10:56:26;7.82;;;3.47;;
21878;SDS011;27908;42.708;23.278;2022-08-11T10:59:13;9.68;;;3.55;;
21878;SDS011;27908;42.708;23.278;2022-08-11T11:01:40;7.75;;;3.60;;
21878;SDS011;27908;42.708;23.278;2022-08-11T11:09:12;8.07;;;3.90;;
21878;SDS011;27908;42.708;23.278;2022-08-11T11:11:49;8.23;;;3.70;;
21878;SDS011;27908;42.708;23.278;2022-08-11T11:14:36;7.97;;;3.70;;
21878;SDS011;27908;42.708;23.278;2022-08-11T11:17:28;8.32;;;4.22;;
21878;SDS011;27908;42.708;23.278;2022-08-11T11:20:19;8.90;;;4.43;;
21878;SDS011;27908;42.708;23.278;2022-08-11T11:22:50;8.87;;;3.93;;
21878;SDS011;27908;42.708;23.278;2022-08-11T11:25:20;8.98;;;3.80;;
21878;SDS011;27908;42.708;23.278;2022-08-11T11:33:37;9.70;;;3.80;;
21878;SDS011;27908;42.708;23.278;2022-08-11T11:39:31;8.50;;;3.90;;
21878;SDS011;27908;42.708;23.278;2022-08-11T11:42:01;9.45;;;4.07;;
21878;SDS011;27908;42.708;23.278;2022-08-11T11:44:30;11.20;;;3.88;;
21878;SDS011;27908;42.708;23.278;2022-08-11T11:46:57;8.88;;;4.15;;
21878;SDS011;27908;42.708;23.278;2022-08-11T11:49:26;7.90;;;4.03;;
21878;SDS011;27908;42.708;23.278;2022-08-11T11:51:54;9.38;;;4.32;;
21878;SDS011;27908;42.708;23.278;2022-08-11T11:54:21;10.32;;;4.10;;
21878;SDS011;27908;42.708;23.278;2022-08-11T11:56:49;8.65;;;4.03;;
21878;SDS011;27908;42.708;23.278;2022-08-11T11:59:17;8.55;;;3.72;;
21878;SDS011;27908;42.708;23.278;2022-08-11T12:02:03;8.23;;;3.60;;
21878;SDS011;27908;42.708;23.278;2022-08-11T12:04:30;8.23;;;3.88;;
21878;SDS011;27908;42.708;23.278;2022-08-11T12:06:56;7.68;;;3.90;;
21878;SDS011;27908;42.708;23.278;2022-08-11T12:09:42;9.90;;;3.63;;
21878;SDS011;27908;42.708;23.278;2022-08-11T12:12:10;8.90;;;3.47;;
21878;SDS011;27908;42.708;23.278;2022-08-11T12:14:55;8.18;;;3.63;;
21878;SDS011;27908;42.708;23.278;2022-08-11T12:17:21;7.70;;;3.83;;
21878;SDS011;27908;42.708;23.278;2022-08-11T12:19:47;7.90;;;3.80;;
21878;SDS011;27908;42.708;23.278;2022-08-11T12:22:14;6.65;;;3.55;;
21878;SDS011;27908;42.708;23.278;2022-08-11T12:24:59;7.73;;;3.60;;
21878;SDS011;27908;42.708;23.278;2022-08-11T12:27:44;8.70;;;3.50;;
21878;SDS011;27908;42.708;23.278;2022-08-11T12:30:09;8.23;;;3.42;;
21878;SDS011;27908;42.708;23.278;2022-08-11T12:32:37;8.23;;;3.70;;
21878;SDS011;27908;42.708;23.278;2022-08-11T12:35:04;6.90;;;3.27;;
21878;SDS011;27908;42.708;23.278;2022-08-11T12:37:35;6.80;;;3.05;;
21878;SDS011;27908;42.708;23.278;2022-08-11T12:40:06;6.78;;;3.42;;
21878;SDS011;27908;42.708;23.278;2022-08-11T12:42:54;8.27;;;3.40;;
21878;SDS011;27908;42.708;23.278;2022-08-11T12:45:44;7.28;;;3.63;;
21878;SDS011;27908;42.708;23.278;2022-08-11T12:48:12;6.63;;;3.50;;
21878;SDS011;27908;42.708;23.278;2022-08-11T12:51:02;8.57;;;3.83;;
21878;SDS011;27908;42.708;23.278;2022-08-11T12:56:34;8.15;;;3.22;;
21878;SDS011;27908;42.708;23.278;2022-08-11T12:59:22;8.77;;;2.78;;
21878;SDS011;27908;42.708;23.278;2022-08-11T13:02:08;8.03;;;2.83;;
21878;SDS011;27908;42.708;23.278;2022-08-11T13:04:58;7.43;;;2.95;;
21878;SDS011;27908;42.708;23.278;2022-08-11T13:07:24;7.50;;;2.95;;
21878;SDS011;27908;42.708;23.278;2022-08-11T13:09:52;7.63;;;3.30;;
21878;SDS011;27908;42.708;23.278;2022-08-11T13:12:20;10.35;;;3.42;;
21878;SDS011;27908;42.708;23.278;2022-08-11T13:15:09;15.67;;;4.00;;
21878;SDS011;27908;42.708;23.278;2022-08-11T13:17:36;9.77;;;3.40;;
21878;SDS011;27908;42.708;23.278;2022-08-11T13:20:04;10.25;;;3.58;;
21878;SDS011;27908;42.708;23.278;2022-08-11T13:22:32;10.23;;;3.05;;
21878;SDS011;27908;42.708;23.278;2022-08-11T13:25:02;11.15;;;3.83;;
21878;SDS011;27908;42.708;23.278;2022-08-11T13:27:28;9.20;;;3.40;;
21878;SDS011;27908;42.708;23.278;2022-08-11T13:29:55;6.53;;;2.83;;
21878;SDS011;27908;42.708;23.278;2022-08-11T13:32:40;7.30;;;2.90;;
21878;SDS011;27908;42.708;23.278;2022-08-11T13:35:08;5.97;;;2.55;;
21878;SDS011;27908;42.708;23.278;2022-08-11T13:37:54;10.77;;;2.90;;
21878;SDS011;27908;42.708;23.278;2022-08-11T13:40:20;8.30;;;2.50;;
21878;SDS011;27908;42.708;23.278;2022-08-11T13:42:47;10.57;;;2.90;;
21878;SDS011;27908;42.708;23.278;2022-08-11T13:45:14;6.75;;;2.40;;
21878;SDS011;27908;42.708;23.278;2022-08-11T13:47:40;6.70;;;2.47;;
21878;SDS011;27908;42.708;23.278;2022-08-11T13:50:07;5.85;;;2.35;;
21878;SDS011;27908;42.708;23.278;2022-08-11T13:52:35;8.10;;;2.30;;
21878;SDS011;27908;42.708;23.278;2022-08-11T13:55:10;7.88;;;2.45;;
21878;SDS011;27908;42.708;23.278;2022-08-11T13:57:47;12.07;;;2.80;;
21878;SDS011;27908;42.708;23.278;2022-08-11T14:00:16;6.28;;;2.10;;
21878;SDS011;27908;42.708;23.278;2022-08-11T14:02:42;7.28;;;2.20;;
21878;SDS011;27908;42.708;23.278;2022-08-11T14:05:13;6.17;;;2.20;;
21878;SDS011;27908;42.708;23.278;2022-08-11T14:07:51;7.88;;;2.53;;
21878;SDS011;27908;42.708;23.278;2022-08-11T14:10:20;6.13;;;2.28;;
21878;SDS011;27908;42.708;23.278;2022-08-11T14:12:50;7.32;;;2.38;;
21878;SDS011;27908;42.708;23.278;2022-08-11T14:15:40;6.25;;;2.60;;
21878;SDS011;27908;42.708;23.278;2022-08-11T14:18:12;6.70;;;2.17;;
21878;SDS011;27908;42.708;23.278;2022-08-11T14:20:54;8.50;;;2.92;;
21878;SDS011;27908;42.708;23.278;2022-08-11T14:23:42;6.95;;;2.97;;
21878;SDS011;27908;42.708;23.278;2022-08-11T14:26:10;10.82;;;2.83;;
21878;SDS011;27908;42.708;23.278;2022-08-11T14:31:25;6.33;;;2.80;;
21878;SDS011;27908;42.708;23.278;2022-08-11T14:33:55;7.32;;;2.88;;
21878;SDS011;27908;42.708;23.278;2022-08-11T14:36:24;7.18;;;2.90;;
21878;SDS011;27908;42.708;23.278;2022-08-11T14:38:52;11.02;;;3.17;;
21878;SDS011;27908;42.708;23.278;2022-08-11T14:41:19;8.27;;;3.20;;
21878;SDS011;27908;42.708;23.278;2022-08-11T14:44:05;6.07;;;2.90;;
21878;SDS011;27908;42.708;23.278;2022-08-11T14:46:51;7.75;;;2.80;;
21878;SDS011;27908;42.708;23.278;2022-08-11T14:49:39;6.22;;;2.97;;
21878;SDS011;27908;42.708;23.278;2022-08-11T14:52:08;8.70;;;3.08;;
21878;SDS011;27908;42.708;23.278;2022-08-11T14:54:39;6.65;;;3.10;;
21878;SDS011;27908;42.708;23.278;2022-08-11T14:57:26;10.47;;;3.43;;
21878;SDS011;27908;42.708;23.278;2022-08-11T14:59:54;8.98;;;3.10;;
21878;SDS011;27908;42.708;23.278;2022-08-11T15:02:22;13.75;;;10.30;;
21878;SDS011;27908;42.708;23.278;2022-08-11T15:05:06;7.40;;;3.22;;
21878;SDS011;27908;42.708;23.278;2022-08-11T15:07:32;7.50;;;3.58;;
21878;SDS011;27908;42.708;23.278;2022-08-11T15:09:59;7.47;;;3.57;;
21878;SDS011;27908;42.708;23.278;2022-08-11T15:12:29;8.35;;;4.18;;
21878;SDS011;27908;42.708;23.278;2022-08-11T15:14:55;7.50;;;3.22;;
21878;SDS011;27908;42.708;23.278;2022-08-11T15:17:40;13.98;;;8.48;;
21878;SDS011;27908;42.708;23.278;2022-08-11T15:20:11;6.70;;;3.08;;
21878;SDS011;27908;42.708;23.278;2022-08-11T15:22:58;8.60;;;3.30;;
21878;SDS011;27908;42.708;23.278;2022-08-11T15:25:50;7.72;;;3.85;;
21878;SDS011;27908;42.708;23.278;2022-08-11T15:28:20;8.18;;;3.55;;
21878;SDS011;27908;42.708;23.278;2022-08-11T15:31:06;7.88;;;3.00;;
21878;SDS011;27908;42.708;23.278;2022-08-11T15:34:04;9.60;;;3.80;;
21878;SDS011;27908;42.708;23.278;2022-08-11T15:36:52;8.40;;;3.33;;
21878;SDS011;27908;42.708;23.278;2022-08-11T15:39:50;8.77;;;3.00;;
21878;SDS011;27908;42.708;23.278;2022-08-11T15:45:45;9.93;;;3.58;;
21878;SDS011;27908;42.708;23.278;2022-08-11T15:51:08;10.00;;;3.57;;
21878;SDS011;27908;42.708;23.278;2022-08-11T15:53:45;10.15;;;3.70;;
21878;SDS011;27908;42.708;23.278;2022-08-11T15:56:14;7.85;;;3.35;;
21878;SDS011;27908;42.708;23.278;2022-08-11T15:58:42;12.43;;;5.50;;
21878;SDS011;27908;42.708;23.278;2022-08-11T16:01:29;8.50;;;3.83;;
21878;SDS011;27908;42.708;23.278;2022-08-11T16:04:16;10.03;;;5.23;;
21878;SDS011;27908;42.708;23.278;2022-08-11T16:06:51;11.65;;;4.70;;
21878;SDS011;27908;42.708;23.278;2022-08-11T16:12:19;9.35;;;3.70;;
21878;SDS011;27908;42.708;23.278;2022-08-11T16:14:49;6.85;;;3.00;;
21878;SDS011;27908;42.708;23.278;2022-08-11T16:17:38;7.53;;;3.43;;
21878;SDS011;27908;42.708;23.278;2022-08-11T16:20:06;7.50;;;3.00;;
21878;SDS011;27908;42.708;23.278;2022-08-11T16:22:33;7.80;;;3.33;;
21878;SDS011;27908;42.708;23.278;2022-08-11T16:25:05;6.60;;;3.30;;
21878;SDS011;27908;42.708;23.278;2022-08-11T16:27:44;7.22;;;3.60;;
21878;SDS011;27908;42.708;23.278;2022-08-11T16:30:12;6.97;;;3.10;;
21878;SDS011;27908;42.708;23.278;2022-08-11T16:32:42;7.13;;;3.25;;
21878;SDS011;27908;42.708;23.278;2022-08-11T16:35:18;7.95;;;3.10;;
21878;SDS011;27908;42.708;23.278;2022-08-11T16:38:06;6.93;;;3.17;;
21878;SDS011;27908;42.708;23.278;2022-08-11T16:40:53;8.93;;;3.83;;
21878;SDS011;27908;42.708;23.278;2022-08-11T16:43:21;6.87;;;3.50;;
21878;SDS011;27908;42.708;23.278;2022-08-11T16:46:07;6.60;;;3.05;;
21878;SDS011;27908;42.708;23.278;2022-08-11T16:48:52;6.65;;;3.05;;
21878;SDS011;27908;42.708;23.278;2022-08-11T16:51:19;6.90;;;3.30;;
21878;SDS011;27908;42.708;23.278;2022-08-11T16:53:46;7.80;;;3.22;;
21878;SDS011;27908;42.708;23.278;2022-08-11T16:56:13;7.20;;;3.20;;
21878;SDS011;27908;42.708;23.278;2022-08-11T16:58:46;7.53;;;3.55;;
21878;SDS011;27908;42.708;23.278;2022-08-11T17:01:36;7.00;;;3.15;;
21878;SDS011;27908;42.708;23.278;2022-08-11T17:04:06;8.60;;;3.40;;
21878;SDS011;27908;42.708;23.278;2022-08-11T17:06:59;7.70;;;3.08;;
21878;SDS011;27908;42.708;23.278;2022-08-11T17:09:44;11.68;;;3.60;;
21878;SDS011;27908;42.708;23.278;2022-08-11T17:12:31;7.43;;;3.30;;
21878;SDS011;27908;42.708;23.278;2022-08-11T17:15:18;9.80;;;3.30;;
21878;SDS011;27908;42.708;23.278;2022-08-11T17:18:05;9.10;;;4.73;;
21878;SDS011;27908;42.708;23.278;2022-08-11T17:20:35;7.72;;;3.42;;
21878;SDS011;27908;42.708;23.278;2022-08-11T17:23:02;7.22;;;3.30;;
21878;SDS011;27908;42.708;23.278;2022-08-11T17:25:48;8.30;;;3.50;;
21878;SDS011;27908;42.708;23.278;2022-08-11T17:28:15;8.27;;;3.20;;
21878;SDS011;27908;42.708;23.278;2022-08-11T17:30:44;8.03;;;3.20;;
21878;SDS011;27908;42.708;23.278;2022-08-11T17:33:29;9.32;;;3.40;;
21878;SDS011;27908;42.708;23.278;2022-08-11T17:36:15;9.02;;;3.90;;
21878;SDS011;27908;42.708;23.278;2022-08-11T17:38:44;8.43;;;4.10;;
21878;SDS011;27908;42.708;23.278;2022-08-11T17:41:11;8.90;;;3.92;;
21878;SDS011;27908;42.708;23.278;2022-08-11T17:43:57;8.30;;;3.50;;
21878;SDS011;27908;42.708;23.278;2022-08-11T17:46:43;8.88;;;3.72;;
21878;SDS011;27908;42.708;23.278;2022-08-11T17:49:28;8.70;;;3.97;;
21878;SDS011;27908;42.708;23.278;2022-08-11T17:52:01;7.07;;;3.42;;
21878;SDS011;27908;42.708;23.278;2022-08-11T17:54:46;7.68;;;3.40;;
21878;SDS011;27908;42.708;23.278;2022-08-11T17:57:33;8.20;;;3.80;;
21878;SDS011;27908;42.708;23.278;2022-08-11T18:00:19;8.43;;;3.35;;
21878;SDS011;27908;42.708;23.278;2022-08-11T18:02:46;9.13;;;3.90;;
21878;SDS011;27908;42.708;23.278;2022-08-11T18:05:32;7.43;;;3.60;;
21878;SDS011;27908;42.708;23.278;2022-08-11T18:08:02;9.10;;;3.60;;
21878;SDS011;27908;42.708;23.278;2022-08-11T18:10:49;10.77;;;4.60;;
21878;SDS011;27908;42.708;23.278;2022-08-11T18:13:36;7.15;;;3.30;;
21878;SDS011;27908;42.708;23.278;2022-08-11T18:16:21;7.78;;;3.65;;
21878;SDS011;27908;42.708;23.278;2022-08-11T18:19:04;7.43;;;3.40;;
21878;SDS011;27908;42.708;23.278;2022-08-11T18:21:49;8.68;;;3.72;;
21878;SDS011;27908;42.708;23.278;2022-08-11T18:24:39;8.73;;;3.40;;
21878;SDS011;27908;42.708;23.278;2022-08-11T18:27:29;7.60;;;3.40;;
21878;SDS011;27908;42.708;23.278;2022-08-11T18:30:15;7.93;;;3.35;;
21878;SDS011;27908;42.708;23.278;2022-08-11T18:33:00;7.78;;;3.40;;
21878;SDS011;27908;42.708;23.278;2022-08-11T18:35:49;7.30;;;3.90;;
21878;SDS011;27908;42.708;23.278;2022-08-11T18:38:38;10.57;;;3.50;;
21878;SDS011;27908;42.708;23.278;2022-08-11T18:41:25;8.20;;;3.80;;
21878;SDS011;27908;42.708;23.278;2022-08-11T18:44:12;7.28;;;3.47;;
21878;SDS011;27908;42.708;23.278;2022-08-11T18:47:01;7.97;;;3.83;;
21878;SDS011;27908;42.708;23.278;2022-08-11T18:49:50;7.35;;;3.42;;
21878;SDS011;27908;42.708;23.278;2022-08-11T18:52:37;6.80;;;3.23;;
21878;SDS011;27908;42.708;23.278;2022-08-11T18:55:25;9.43;;;4.22;;
21878;SDS011;27908;42.708;23.278;2022-08-11T18:58:10;8.68;;;3.80;;
21878;SDS011;27908;42.708;23.278;2022-08-11T19:00:57;10.02;;;3.78;;
21878;SDS011;27908;42.708;23.278;2022-08-11T19:03:44;10.00;;;3.55;;
21878;SDS011;27908;42.708;23.278;2022-08-11T19:06:30;7.97;;;3.60;;
21878;SDS011;27908;42.708;23.278;2022-08-11T19:09:17;8.45;;;3.92;;
21878;SDS011;27908;42.708;23.278;2022-08-11T19:12:02;7.78;;;3.80;;
21878;SDS011;27908;42.708;23.278;2022-08-11T19:14:49;7.43;;;3.75;;
21878;SDS011;27908;42.708;23.278;2022-08-11T19:17:34;7.35;;;3.45;;
21878;SDS011;27908;42.708;23.278;2022-08-11T19:20:23;7.77;;;3.37;;
21878;SDS011;27908;42.708;23.278;2022-08-11T19:23:10;7.78;;;3.42;;
21878;SDS011;27908;42.708;23.278;2022-08-11T19:25:57;8.82;;;4.47;;